sensor_id;sensor_type;location;lat;lon;timestamp;P1;durP1;ratioP1;P2;durP2;ratioP2
14396;SDS011;50653;47.810;13.022;2024-03-22T00:01:46;2.50;;;2.40;;
14396;SDS011;50653;47.810;13.022;2024-03-22T00:04:13;1.70;;;1.60;;
14396;SDS011;50653;47.810;13.022;2024-03-22T00:06:43;2.27;;;2.17;;
14396;SDS011;50653;47.810;13.022;2024-03-22T00:09:10;2.27;;;2.17;;
14396;SDS011;50653;47.810;13.022;2024-03-22T00:11:38;1.90;;;1.80;;
14396;SDS011;50653;47.810;13.022;2024-03-22T00:14:05;2.53;;;2.00;;
14396;SDS011;50653;47.810;13.022;2024-03-22T00:16:32;2.40;;;2.30;;
14396;SDS011;50653;47.810;13.022;2024-03-22T00:18:57;2.00;;;1.80;;
14396;SDS011;50653;47.810;13.022;2024-03-22T00:21:23;2.13;;;2.03;;
14396;SDS011;50653;47.810;13.022;2024-03-22T00:23:49;2.87;;;2.70;;
14396;SDS011;50653;47.810;13.022;2024-03-22T00:26:15;2.27;;;2.17;;
14396;SDS011;50653;47.810;13.022;2024-03-22T00:28:41;2.20;;;2.10;;
14396;SDS011;50653;47.810;13.022;2024-03-22T00:31:08;2.00;;;1.90;;
14396;SDS011;50653;47.810;13.022;2024-03-22T00:33:34;2.00;;;1.90;;
14396;SDS011;50653;47.810;13.022;2024-03-22T00:36:00;2.10;;;2.00;;
14396;SDS011;50653;47.810;13.022;2024-03-22T00:38:25;3.07;;;2.90;;
14396;SDS011;50653;47.810;13.022;2024-03-22T00:40:52;2.10;;;2.00;;
14396;SDS011;50653;47.810;13.022;2024-03-22T00:43:18;2.20;;;2.10;;
14396;SDS011;50653;47.810;13.022;2024-03-22T00:45:44;2.43;;;2.23;;
14396;SDS011;50653;47.810;13.022;2024-03-22T00:48:10;2.63;;;2.53;;
14396;SDS011;50653;47.810;13.022;2024-03-22T00:50:36;2.40;;;2.30;;
14396;SDS011;50653;47.810;13.022;2024-03-22T00:53:01;2.20;;;2.10;;
14396;SDS011;50653;47.810;13.022;2024-03-22T00:55:28;2.10;;;2.00;;
14396;SDS011;50653;47.810;13.022;2024-03-22T00:57:54;2.37;;;2.27;;
14396;SDS011;50653;47.810;13.022;2024-03-22T01:00:19;2.60;;;2.40;;
14396;SDS011;50653;47.810;13.022;2024-03-22T01:02:45;2.13;;;2.03;;
14396;SDS011;50653;47.810;13.022;2024-03-22T01:05:11;2.37;;;2.13;;
14396;SDS011;50653;47.810;13.022;2024-03-22T01:07:36;2.30;;;2.20;;
14396;SDS011;50653;47.810;13.022;2024-03-22T01:10:05;2.40;;;2.30;;
14396;SDS011;50653;47.810;13.022;2024-03-22T01:12:31;2.17;;;2.07;;
14396;SDS011;50653;47.810;13.022;2024-03-22T01:14:57;1.60;;;1.50;;
14396;SDS011;50653;47.810;13.022;2024-03-22T01:17:23;2.10;;;2.00;;
14396;SDS011;50653;47.810;13.022;2024-03-22T01:19:49;1.97;;;1.87;;
14396;SDS011;50653;47.810;13.022;2024-03-22T01:22:15;1.73;;;1.63;;
14396;SDS011;50653;47.810;13.022;2024-03-22T01:24:42;1.70;;;1.60;;
14396;SDS011;50653;47.810;13.022;2024-03-22T01:27:08;1.70;;;1.60;;
14396;SDS011;50653;47.810;13.022;2024-03-22T01:29:34;1.83;;;1.73;;
14396;SDS011;50653;47.810;13.022;2024-03-22T01:32:00;2.17;;;2.07;;
14396;SDS011;50653;47.810;13.022;2024-03-22T01:34:26;2.17;;;1.80;;
14396;SDS011;50653;47.810;13.022;2024-03-22T01:36:52;2.23;;;2.13;;
14396;SDS011;50653;47.810;13.022;2024-03-22T01:39:21;1.90;;;1.80;;
14396;SDS011;50653;47.810;13.022;2024-03-22T01:41:47;2.37;;;2.27;;
14396;SDS011;50653;47.810;13.022;2024-03-22T01:44:13;2.00;;;1.90;;
14396;SDS011;50653;47.810;13.022;2024-03-22T01:46:42;2.07;;;1.97;;
14396;SDS011;50653;47.810;13.022;2024-03-22T01:49:09;3.13;;;2.93;;
14396;SDS011;50653;47.810;13.022;2024-03-22T01:51:38;2.30;;;2.20;;
14396;SDS011;50653;47.810;13.022;2024-03-22T01:54:05;2.63;;;2.43;;
14396;SDS011;50653;47.810;13.022;2024-03-22T01:56:37;2.20;;;2.10;;
14396;SDS011;50653;47.810;13.022;2024-03-22T01:59:06;2.00;;;1.90;;
14396;SDS011;50653;47.810;13.022;2024-03-22T02:01:32;3.20;;;2.90;;
14396;SDS011;50653;47.810;13.022;2024-03-22T02:03:59;2.70;;;2.60;;
14396;SDS011;50653;47.810;13.022;2024-03-22T02:06:25;3.33;;;3.13;;
14396;SDS011;50653;47.810;13.022;2024-03-22T02:08:51;2.83;;;2.73;;
14396;SDS011;50653;47.810;13.022;2024-03-22T02:11:16;2.07;;;1.97;;
14396;SDS011;50653;47.810;13.022;2024-03-22T02:13:42;2.67;;;2.57;;
14396;SDS011;50653;47.810;13.022;2024-03-22T02:16:08;2.80;;;2.60;;
14396;SDS011;50653;47.810;13.022;2024-03-22T02:18:34;3.00;;;2.80;;
14396;SDS011;50653;47.810;13.022;2024-03-22T02:21:00;3.20;;;3.00;;
14396;SDS011;50653;47.810;13.022;2024-03-22T02:23:35;2.80;;;2.53;;
14396;SDS011;50653;47.810;13.022;2024-03-22T02:26:02;2.53;;;2.43;;
14396;SDS011;50653;47.810;13.022;2024-03-22T02:28:28;2.97;;;2.87;;
14396;SDS011;50653;47.810;13.022;2024-03-22T02:30:55;2.60;;;2.40;;
14396;SDS011;50653;47.810;13.022;2024-03-22T02:33:21;2.70;;;2.60;;
14396;SDS011;50653;47.810;13.022;2024-03-22T02:35:47;2.47;;;2.37;;
14396;SDS011;50653;47.810;13.022;2024-03-22T02:38:13;2.77;;;2.67;;
14396;SDS011;50653;47.810;13.022;2024-03-22T02:40:39;5.13;;;2.27;;
14396;SDS011;50653;47.810;13.022;2024-03-22T02:43:05;2.60;;;2.50;;
14396;SDS011;50653;47.810;13.022;2024-03-22T02:45:31;2.43;;;2.23;;
14396;SDS011;50653;47.810;13.022;2024-03-22T02:47:57;2.33;;;2.23;;
14396;SDS011;50653;47.810;13.022;2024-03-22T02:50:23;2.80;;;2.70;;
14396;SDS011;50653;47.810;13.022;2024-03-22T02:52:49;2.30;;;2.20;;
14396;SDS011;50653;47.810;13.022;2024-03-22T02:55:15;3.57;;;3.37;;
14396;SDS011;50653;47.810;13.022;2024-03-22T02:57:41;2.63;;;2.50;;
14396;SDS011;50653;47.810;13.022;2024-03-22T03:00:07;4.00;;;3.70;;
14396;SDS011;50653;47.810;13.022;2024-03-22T03:02:33;4.33;;;4.03;;
14396;SDS011;50653;47.810;13.022;2024-03-22T03:04:59;4.67;;;4.43;;
14396;SDS011;50653;47.810;13.022;2024-03-22T03:07:25;3.47;;;3.27;;
14396;SDS011;50653;47.810;13.022;2024-03-22T03:09:51;3.90;;;3.70;;
14396;SDS011;50653;47.810;13.022;2024-03-22T03:12:16;5.40;;;5.10;;
14396;SDS011;50653;47.810;13.022;2024-03-22T03:14:42;3.27;;;3.07;;
14396;SDS011;50653;47.810;13.022;2024-03-22T03:17:08;4.07;;;3.87;;
14396;SDS011;50653;47.810;13.022;2024-03-22T03:19:33;4.50;;;4.10;;
14396;SDS011;50653;47.810;13.022;2024-03-22T03:21:59;2.63;;;2.53;;
14396;SDS011;50653;47.810;13.022;2024-03-22T03:24:25;3.77;;;3.57;;
14396;SDS011;50653;47.810;13.022;2024-03-22T03:26:51;3.10;;;3.00;;
14396;SDS011;50653;47.810;13.022;2024-03-22T03:29:16;4.07;;;3.80;;
14396;SDS011;50653;47.810;13.022;2024-03-22T03:31:42;4.00;;;3.80;;
14396;SDS011;50653;47.810;13.022;2024-03-22T03:34:08;4.60;;;4.20;;
14396;SDS011;50653;47.810;13.022;2024-03-22T03:36:33;4.17;;;3.87;;
14396;SDS011;50653;47.810;13.022;2024-03-22T03:38:59;5.37;;;4.90;;
14396;SDS011;50653;47.810;13.022;2024-03-22T03:41:25;5.13;;;4.80;;
14396;SDS011;50653;47.810;13.022;2024-03-22T03:43:50;6.13;;;5.53;;
14396;SDS011;50653;47.810;13.022;2024-03-22T03:46:16;5.80;;;5.30;;
14396;SDS011;50653;47.810;13.022;2024-03-22T03:48:42;4.30;;;4.00;;
14396;SDS011;50653;47.810;13.022;2024-03-22T03:51:08;4.13;;;3.93;;
14396;SDS011;50653;47.810;13.022;2024-03-22T03:53:33;3.90;;;3.70;;
14396;SDS011;50653;47.810;13.022;2024-03-22T03:55:59;4.50;;;4.13;;
14396;SDS011;50653;47.810;13.022;2024-03-22T03:58:25;5.20;;;4.90;;
14396;SDS011;50653;47.810;13.022;2024-03-22T04:00:50;4.53;;;4.23;;
14396;SDS011;50653;47.810;13.022;2024-03-22T04:03:16;5.00;;;4.53;;
14396;SDS011;50653;47.810;13.022;2024-03-22T04:05:41;6.83;;;4.83;;
14396;SDS011;50653;47.810;13.022;2024-03-22T04:08:07;4.53;;;4.30;;
14396;SDS011;50653;47.810;13.022;2024-03-22T04:10:33;8.33;;;4.70;;
14396;SDS011;50653;47.810;13.022;2024-03-22T04:12:58;5.93;;;5.53;;
14396;SDS011;50653;47.810;13.022;2024-03-22T04:15:24;5.20;;;4.80;;
14396;SDS011;50653;47.810;13.022;2024-03-22T04:17:50;5.87;;;5.40;;
14396;SDS011;50653;47.810;13.022;2024-03-22T04:20:16;6.77;;;6.10;;
14396;SDS011;50653;47.810;13.022;2024-03-22T04:22:41;5.27;;;4.97;;
14396;SDS011;50653;47.810;13.022;2024-03-22T04:25:07;5.57;;;5.10;;
14396;SDS011;50653;47.810;13.022;2024-03-22T04:27:36;5.50;;;5.20;;
14396;SDS011;50653;47.810;13.022;2024-03-22T04:30:02;6.90;;;6.40;;
14396;SDS011;50653;47.810;13.022;2024-03-22T04:32:28;5.30;;;4.90;;
14396;SDS011;50653;47.810;13.022;2024-03-22T04:34:54;5.93;;;5.47;;
14396;SDS011;50653;47.810;13.022;2024-03-22T04:37:20;5.30;;;5.00;;
14396;SDS011;50653;47.810;13.022;2024-03-22T04:39:46;5.20;;;4.80;;
14396;SDS011;50653;47.810;13.022;2024-03-22T04:42:12;5.70;;;5.20;;
14396;SDS011;50653;47.810;13.022;2024-03-22T04:44:37;5.23;;;4.83;;
14396;SDS011;50653;47.810;13.022;2024-03-22T04:47:03;5.63;;;5.30;;
14396;SDS011;50653;47.810;13.022;2024-03-22T04:49:29;5.07;;;4.63;;
14396;SDS011;50653;47.810;13.022;2024-03-22T04:51:56;3.80;;;3.50;;
14396;SDS011;50653;47.810;13.022;2024-03-22T04:54:21;4.83;;;4.53;;
14396;SDS011;50653;47.810;13.022;2024-03-22T04:56:47;5.53;;;5.23;;
14396;SDS011;50653;47.810;13.022;2024-03-22T04:59:13;6.73;;;6.17;;
14396;SDS011;50653;47.810;13.022;2024-03-22T05:01:38;5.93;;;5.40;;
14396;SDS011;50653;47.810;13.022;2024-03-22T05:04:04;4.90;;;4.50;;
14396;SDS011;50653;47.810;13.022;2024-03-22T05:06:30;4.90;;;4.60;;
14396;SDS011;50653;47.810;13.022;2024-03-22T05:08:55;5.00;;;4.60;;
14396;SDS011;50653;47.810;13.022;2024-03-22T05:11:21;4.23;;;4.00;;
14396;SDS011;50653;47.810;13.022;2024-03-22T05:13:47;5.63;;;5.23;;
14396;SDS011;50653;47.810;13.022;2024-03-22T05:16:12;5.00;;;4.57;;
14396;SDS011;50653;47.810;13.022;2024-03-22T05:18:38;7.03;;;4.20;;
14396;SDS011;50653;47.810;13.022;2024-03-22T05:21:04;5.00;;;4.60;;
14396;SDS011;50653;47.810;13.022;2024-03-22T05:23:30;5.77;;;5.27;;
14396;SDS011;50653;47.810;13.022;2024-03-22T05:25:56;5.23;;;4.77;;
14396;SDS011;50653;47.810;13.022;2024-03-22T05:28:22;5.43;;;4.97;;
14396;SDS011;50653;47.810;13.022;2024-03-22T05:30:47;4.47;;;4.17;;
14396;SDS011;50653;47.810;13.022;2024-03-22T05:33:13;4.80;;;4.50;;
14396;SDS011;50653;47.810;13.022;2024-03-22T05:35:39;5.00;;;4.60;;
14396;SDS011;50653;47.810;13.022;2024-03-22T05:38:06;6.50;;;5.87;;
14396;SDS011;50653;47.810;13.022;2024-03-22T05:40:31;5.50;;;5.10;;
14396;SDS011;50653;47.810;13.022;2024-03-22T05:42:57;6.00;;;5.60;;
14396;SDS011;50653;47.810;13.022;2024-03-22T05:45:23;5.67;;;4.80;;
14396;SDS011;50653;47.810;13.022;2024-03-22T05:47:48;5.67;;;5.17;;
14396;SDS011;50653;47.810;13.022;2024-03-22T05:50:14;6.57;;;5.97;;
14396;SDS011;50653;47.810;13.022;2024-03-22T05:52:40;7.23;;;5.53;;
14396;SDS011;50653;47.810;13.022;2024-03-22T05:55:06;6.33;;;5.83;;
14396;SDS011;50653;47.810;13.022;2024-03-22T05:57:32;5.20;;;4.80;;
14396;SDS011;50653;47.810;13.022;2024-03-22T05:59:57;6.23;;;5.47;;
14396;SDS011;50653;47.810;13.022;2024-03-22T06:02:23;6.07;;;5.57;;
14396;SDS011;50653;47.810;13.022;2024-03-22T06:04:49;7.87;;;6.40;;
14396;SDS011;50653;47.810;13.022;2024-03-22T06:07:14;8.47;;;5.30;;
14396;SDS011;50653;47.810;13.022;2024-03-22T06:09:42;6.03;;;5.53;;
14396;SDS011;50653;47.810;13.022;2024-03-22T06:12:14;5.40;;;4.90;;
14396;SDS011;50653;47.810;13.022;2024-03-22T06:14:43;5.00;;;4.70;;
14396;SDS011;50653;47.810;13.022;2024-03-22T06:17:09;5.33;;;4.83;;
14396;SDS011;50653;47.810;13.022;2024-03-22T06:19:35;4.80;;;4.40;;
14396;SDS011;50653;47.810;13.022;2024-03-22T06:22:01;4.90;;;4.60;;
14396;SDS011;50653;47.810;13.022;2024-03-22T06:24:27;6.50;;;5.90;;
14396;SDS011;50653;47.810;13.022;2024-03-22T06:26:53;5.30;;;4.90;;
14396;SDS011;50653;47.810;13.022;2024-03-22T06:29:19;6.80;;;5.93;;
14396;SDS011;50653;47.810;13.022;2024-03-22T06:31:45;5.80;;;5.30;;
14396;SDS011;50653;47.810;13.022;2024-03-22T06:34:11;5.73;;;5.33;;
14396;SDS011;50653;47.810;13.022;2024-03-22T06:36:37;4.60;;;4.30;;
14396;SDS011;50653;47.810;13.022;2024-03-22T06:39:02;5.30;;;4.80;;
14396;SDS011;50653;47.810;13.022;2024-03-22T06:41:31;5.07;;;4.77;;
14396;SDS011;50653;47.810;13.022;2024-03-22T06:43:57;5.37;;;4.97;;
14396;SDS011;50653;47.810;13.022;2024-03-22T06:46:23;5.57;;;5.17;;
14396;SDS011;50653;47.810;13.022;2024-03-22T06:48:49;6.30;;;5.90;;
14396;SDS011;50653;47.810;13.022;2024-03-22T06:51:15;6.17;;;5.67;;
14396;SDS011;50653;47.810;13.022;2024-03-22T06:53:42;5.53;;;5.13;;
14396;SDS011;50653;47.810;13.022;2024-03-22T06:56:07;5.43;;;5.03;;
14396;SDS011;50653;47.810;13.022;2024-03-22T06:58:37;6.20;;;4.80;;
14396;SDS011;50653;47.810;13.022;2024-03-22T07:01:05;4.90;;;4.60;;
14396;SDS011;50653;47.810;13.022;2024-03-22T07:03:31;5.03;;;4.73;;
14396;SDS011;50653;47.810;13.022;2024-03-22T07:05:57;6.40;;;5.73;;
14396;SDS011;50653;47.810;13.022;2024-03-22T07:08:23;5.40;;;4.90;;
14396;SDS011;50653;47.810;13.022;2024-03-22T07:10:50;5.83;;;5.43;;
14396;SDS011;50653;47.810;13.022;2024-03-22T07:13:16;6.03;;;5.53;;
14396;SDS011;50653;47.810;13.022;2024-03-22T07:15:43;6.30;;;5.70;;
14396;SDS011;50653;47.810;13.022;2024-03-22T07:18:10;5.97;;;5.37;;
14396;SDS011;50653;47.810;13.022;2024-03-22T07:20:35;7.53;;;5.87;;
14396;SDS011;50653;47.810;13.022;2024-03-22T07:23:01;5.37;;;4.90;;
14396;SDS011;50653;47.810;13.022;2024-03-22T07:25:27;7.43;;;5.57;;
14396;SDS011;50653;47.810;13.022;2024-03-22T07:27:52;5.63;;;5.13;;
14396;SDS011;50653;47.810;13.022;2024-03-22T07:30:18;5.90;;;5.40;;
14396;SDS011;50653;47.810;13.022;2024-03-22T07:32:45;5.67;;;5.33;;
14396;SDS011;50653;47.810;13.022;2024-03-22T07:35:13;6.20;;;5.60;;
14396;SDS011;50653;47.810;13.022;2024-03-22T07:37:39;5.73;;;5.23;;
14396;SDS011;50653;47.810;13.022;2024-03-22T07:40:05;5.80;;;5.30;;
14396;SDS011;50653;47.810;13.022;2024-03-22T07:42:31;6.17;;;5.63;;
14396;SDS011;50653;47.810;13.022;2024-03-22T07:44:57;6.83;;;6.23;;
14396;SDS011;50653;47.810;13.022;2024-03-22T07:47:22;6.00;;;5.60;;
14396;SDS011;50653;47.810;13.022;2024-03-22T07:49:48;5.33;;;4.93;;
14396;SDS011;50653;47.810;13.022;2024-03-22T07:52:15;5.70;;;5.20;;
14396;SDS011;50653;47.810;13.022;2024-03-22T07:54:41;8.83;;;5.77;;
14396;SDS011;50653;47.810;13.022;2024-03-22T07:57:07;4.47;;;4.17;;
14396;SDS011;50653;47.810;13.022;2024-03-22T07:59:32;3.77;;;3.47;;
14396;SDS011;50653;47.810;13.022;2024-03-22T08:01:58;4.00;;;3.70;;
14396;SDS011;50653;47.810;13.022;2024-03-22T08:04:24;4.90;;;4.60;;
14396;SDS011;50653;47.810;13.022;2024-03-22T08:06:52;4.43;;;4.10;;
14396;SDS011;50653;47.810;13.022;2024-03-22T08:09:18;4.90;;;4.50;;
14396;SDS011;50653;47.810;13.022;2024-03-22T08:11:44;4.87;;;4.47;;
14396;SDS011;50653;47.810;13.022;2024-03-22T08:14:10;4.30;;;4.00;;
14396;SDS011;50653;47.810;13.022;2024-03-22T08:16:35;4.07;;;3.87;;
14396;SDS011;50653;47.810;13.022;2024-03-22T08:19:01;4.90;;;4.60;;
14396;SDS011;50653;47.810;13.022;2024-03-22T08:21:27;4.17;;;3.87;;
14396;SDS011;50653;47.810;13.022;2024-03-22T08:23:52;4.97;;;4.67;;
14396;SDS011;50653;47.810;13.022;2024-03-22T08:26:18;4.80;;;4.50;;
14396;SDS011;50653;47.810;13.022;2024-03-22T08:28:45;4.80;;;4.50;;
14396;SDS011;50653;47.810;13.022;2024-03-22T08:31:12;4.63;;;4.33;;
14396;SDS011;50653;47.810;13.022;2024-03-22T08:33:38;5.27;;;4.77;;
14396;SDS011;50653;47.810;13.022;2024-03-22T08:36:04;5.63;;;4.00;;
14396;SDS011;50653;47.810;13.022;2024-03-22T08:38:30;4.80;;;4.50;;
14396;SDS011;50653;47.810;13.022;2024-03-22T08:40:55;4.37;;;4.10;;
14396;SDS011;50653;47.810;13.022;2024-03-22T08:43:21;4.27;;;3.97;;
14396;SDS011;50653;47.810;13.022;2024-03-22T08:45:52;5.03;;;4.70;;
14396;SDS011;50653;47.810;13.022;2024-03-22T08:48:18;4.43;;;4.23;;
14396;SDS011;50653;47.810;13.022;2024-03-22T08:50:44;5.50;;;4.77;;
14396;SDS011;50653;47.810;13.022;2024-03-22T08:53:10;4.73;;;4.43;;
14396;SDS011;50653;47.810;13.022;2024-03-22T08:55:35;4.83;;;4.53;;
14396;SDS011;50653;47.810;13.022;2024-03-22T08:58:02;4.10;;;3.80;;
14396;SDS011;50653;47.810;13.022;2024-03-22T09:00:29;4.40;;;4.10;;
14396;SDS011;50653;47.810;13.022;2024-03-22T09:02:54;3.43;;;3.23;;
14396;SDS011;50653;47.810;13.022;2024-03-22T09:05:20;4.63;;;4.33;;
14396;SDS011;50653;47.810;13.022;2024-03-22T09:07:46;4.83;;;4.27;;
14396;SDS011;50653;47.810;13.022;2024-03-22T09:10:13;5.93;;;5.50;;
14396;SDS011;50653;47.810;13.022;2024-03-22T09:12:39;4.20;;;4.00;;
14396;SDS011;50653;47.810;13.022;2024-03-22T09:15:05;4.20;;;3.43;;
14396;SDS011;50653;47.810;13.022;2024-03-22T09:17:32;4.50;;;4.30;;
14396;SDS011;50653;47.810;13.022;2024-03-22T09:19:58;3.73;;;3.53;;
14396;SDS011;50653;47.810;13.022;2024-03-22T09:22:24;4.50;;;4.20;;
14396;SDS011;50653;47.810;13.022;2024-03-22T09:24:49;5.33;;;4.03;;
14396;SDS011;50653;47.810;13.022;2024-03-22T09:27:15;5.10;;;4.70;;
14396;SDS011;50653;47.810;13.022;2024-03-22T09:29:41;5.40;;;4.37;;
14396;SDS011;50653;47.810;13.022;2024-03-22T09:32:08;3.60;;;3.40;;
14396;SDS011;50653;47.810;13.022;2024-03-22T09:34:34;3.87;;;3.57;;
14396;SDS011;50653;47.810;13.022;2024-03-22T09:37:00;4.70;;;4.50;;
14396;SDS011;50653;47.810;13.022;2024-03-22T09:39:26;3.30;;;3.10;;
14396;SDS011;50653;47.810;13.022;2024-03-22T09:41:53;3.30;;;3.10;;
14396;SDS011;50653;47.810;13.022;2024-03-22T09:44:22;2.77;;;2.67;;
14396;SDS011;50653;47.810;13.022;2024-03-22T09:46:48;2.13;;;2.03;;
14396;SDS011;50653;47.810;13.022;2024-03-22T09:49:16;2.60;;;2.40;;
14396;SDS011;50653;47.810;13.022;2024-03-22T09:51:43;3.73;;;3.43;;
14396;SDS011;50653;47.810;13.022;2024-03-22T09:54:09;3.57;;;3.37;;
14396;SDS011;50653;47.810;13.022;2024-03-22T09:56:35;2.40;;;2.30;;
14396;SDS011;50653;47.810;13.022;2024-03-22T09:59:05;2.47;;;2.37;;
14396;SDS011;50653;47.810;13.022;2024-03-22T10:01:32;2.50;;;2.30;;
14396;SDS011;50653;47.810;13.022;2024-03-22T10:03:59;3.30;;;3.00;;
14396;SDS011;50653;47.810;13.022;2024-03-22T10:06:25;3.53;;;2.23;;
14396;SDS011;50653;47.810;13.022;2024-03-22T10:08:51;2.60;;;2.50;;
14396;SDS011;50653;47.810;13.022;2024-03-22T10:11:17;2.47;;;2.27;;
14396;SDS011;50653;47.810;13.022;2024-03-22T10:13:43;1.97;;;1.87;;
14396;SDS011;50653;47.810;13.022;2024-03-22T10:16:11;2.57;;;2.47;;
14396;SDS011;50653;47.810;13.022;2024-03-22T10:18:37;2.67;;;2.43;;
14396;SDS011;50653;47.810;13.022;2024-03-22T10:21:06;2.37;;;2.27;;
14396;SDS011;50653;47.810;13.022;2024-03-22T10:23:31;2.33;;;2.20;;
14396;SDS011;50653;47.810;13.022;2024-03-22T10:25:58;2.00;;;1.90;;
14396;SDS011;50653;47.810;13.022;2024-03-22T10:28:25;2.67;;;2.47;;
14396;SDS011;50653;47.810;13.022;2024-03-22T10:30:51;2.00;;;1.90;;
14396;SDS011;50653;47.810;13.022;2024-03-22T10:33:19;2.00;;;1.90;;
14396;SDS011;50653;47.810;13.022;2024-03-22T10:35:48;1.90;;;1.80;;
14396;SDS011;50653;47.810;13.022;2024-03-22T10:38:20;2.10;;;2.00;;
14396;SDS011;50653;47.810;13.022;2024-03-22T10:40:47;1.50;;;1.40;;
14396;SDS011;50653;47.810;13.022;2024-03-22T10:43:14;1.30;;;1.20;;
14396;SDS011;50653;47.810;13.022;2024-03-22T10:45:40;1.50;;;1.40;;
14396;SDS011;50653;47.810;13.022;2024-03-22T10:48:09;3.13;;;1.50;;
14396;SDS011;50653;47.810;13.022;2024-03-22T10:50:39;1.40;;;1.30;;
14396;SDS011;50653;47.810;13.022;2024-03-22T10:53:14;3.00;;;1.77;;
14396;SDS011;50653;47.810;13.022;2024-03-22T10:55:46;1.70;;;1.60;;
14396;SDS011;50653;47.810;13.022;2024-03-22T10:58:14;1.30;;;1.20;;
14396;SDS011;50653;47.810;13.022;2024-03-22T11:00:42;1.57;;;1.47;;
14396;SDS011;50653;47.810;13.022;2024-03-22T11:03:12;1.90;;;1.80;;
14396;SDS011;50653;47.810;13.022;2024-03-22T11:05:44;1.93;;;1.83;;
14396;SDS011;50653;47.810;13.022;2024-03-22T11:08:24;1.67;;;1.57;;
14396;SDS011;50653;47.810;13.022;2024-03-22T11:10:51;1.90;;;1.80;;
14396;SDS011;50653;47.810;13.022;2024-03-22T11:13:17;1.30;;;1.20;;
14396;SDS011;50653;47.810;13.022;2024-03-22T11:15:43;1.47;;;1.37;;
14396;SDS011;50653;47.810;13.022;2024-03-22T11:18:12;1.53;;;1.43;;
14396;SDS011;50653;47.810;13.022;2024-03-22T11:20:37;1.57;;;1.47;;
14396;SDS011;50653;47.810;13.022;2024-03-22T11:23:04;1.40;;;1.30;;
14396;SDS011;50653;47.810;13.022;2024-03-22T11:25:33;1.30;;;1.20;;
14396;SDS011;50653;47.810;13.022;2024-03-22T11:27:59;1.20;;;1.13;;
14396;SDS011;50653;47.810;13.022;2024-03-22T11:30:28;1.30;;;1.20;;
14396;SDS011;50653;47.810;13.022;2024-03-22T11:32:54;1.90;;;1.80;;
14396;SDS011;50653;47.810;13.022;2024-03-22T11:35:21;1.67;;;1.57;;
14396;SDS011;50653;47.810;13.022;2024-03-22T11:37:48;2.40;;;2.30;;
14396;SDS011;50653;47.810;13.022;2024-03-22T11:40:15;1.67;;;1.57;;
14396;SDS011;50653;47.810;13.022;2024-03-22T11:42:42;1.90;;;1.80;;
14396;SDS011;50653;47.810;13.022;2024-03-22T11:45:12;2.07;;;1.90;;
14396;SDS011;50653;47.810;13.022;2024-03-22T11:47:40;1.80;;;1.70;;
14396;SDS011;50653;47.810;13.022;2024-03-22T11:50:06;2.63;;;2.53;;
14396;SDS011;50653;47.810;13.022;2024-03-22T11:52:32;2.47;;;2.37;;
14396;SDS011;50653;47.810;13.022;2024-03-22T11:54:57;2.47;;;2.30;;
14396;SDS011;50653;47.810;13.022;2024-03-22T11:57:24;2.30;;;2.20;;
14396;SDS011;50653;47.810;13.022;2024-03-22T11:59:51;1.83;;;1.70;;
14396;SDS011;50653;47.810;13.022;2024-03-22T12:02:17;1.77;;;1.67;;
14396;SDS011;50653;47.810;13.022;2024-03-22T12:04:44;2.53;;;2.43;;
14396;SDS011;50653;47.810;13.022;2024-03-22T12:07:11;2.90;;;2.70;;
14396;SDS011;50653;47.810;13.022;2024-03-22T12:09:38;1.87;;;1.60;;
14396;SDS011;50653;47.810;13.022;2024-03-22T12:12:06;1.50;;;1.40;;
14396;SDS011;50653;47.810;13.022;2024-03-22T12:14:34;1.50;;;1.17;;
14396;SDS011;50653;47.810;13.022;2024-03-22T12:17:01;1.10;;;1.00;;
14396;SDS011;50653;47.810;13.022;2024-03-22T12:19:27;7.33;;;5.60;;
14396;SDS011;50653;47.810;13.022;2024-03-22T12:21:53;5.50;;;5.00;;
14396;SDS011;50653;47.810;13.022;2024-03-22T12:24:19;4.30;;;3.90;;
14396;SDS011;50653;47.810;13.022;2024-03-22T12:26:45;3.03;;;2.73;;
14396;SDS011;50653;47.810;13.022;2024-03-22T12:29:12;3.00;;;2.80;;
14396;SDS011;50653;47.810;13.022;2024-03-22T12:31:38;7.00;;;5.40;;
14396;SDS011;50653;47.810;13.022;2024-03-22T12:34:04;8.33;;;5.40;;
14396;SDS011;50653;47.810;13.022;2024-03-22T12:36:30;3.90;;;3.13;;
14396;SDS011;50653;47.810;13.022;2024-03-22T12:38:55;3.33;;;3.07;;
14396;SDS011;50653;47.810;13.022;2024-03-22T12:41:21;2.37;;;2.17;;
14396;SDS011;50653;47.810;13.022;2024-03-22T12:43:47;2.73;;;1.47;;
14396;SDS011;50653;47.810;13.022;2024-03-22T12:46:13;1.73;;;1.33;;
14396;SDS011;50653;47.810;13.022;2024-03-22T12:48:38;2.00;;;1.90;;
14396;SDS011;50653;47.810;13.022;2024-03-22T12:51:04;1.23;;;1.13;;
14396;SDS011;50653;47.810;13.022;2024-03-22T12:53:31;1.17;;;1.07;;
14396;SDS011;50653;47.810;13.022;2024-03-22T12:55:57;1.30;;;1.20;;
14396;SDS011;50653;47.810;13.022;2024-03-22T12:58:22;3.83;;;1.00;;
14396;SDS011;50653;47.810;13.022;2024-03-22T13:00:48;2.00;;;1.90;;
14396;SDS011;50653;47.810;13.022;2024-03-22T13:03:14;1.70;;;1.60;;
14396;SDS011;50653;47.810;13.022;2024-03-22T13:05:41;3.63;;;1.47;;
14396;SDS011;50653;47.810;13.022;2024-03-22T13:08:07;2.00;;;1.70;;
14396;SDS011;50653;47.810;13.022;2024-03-22T13:10:33;2.37;;;1.70;;
14396;SDS011;50653;47.810;13.022;2024-03-22T13:12:59;2.07;;;1.97;;
14396;SDS011;50653;47.810;13.022;2024-03-22T13:15:24;1.10;;;1.00;;
14396;SDS011;50653;47.810;13.022;2024-03-22T13:17:51;1.20;;;1.10;;
14396;SDS011;50653;47.810;13.022;2024-03-22T13:20:18;1.43;;;1.33;;
14396;SDS011;50653;47.810;13.022;2024-03-22T13:22:44;1.20;;;1.10;;
14396;SDS011;50653;47.810;13.022;2024-03-22T13:25:10;2.50;;;1.17;;
14396;SDS011;50653;47.810;13.022;2024-03-22T13:27:36;1.17;;;1.07;;
14396;SDS011;50653;47.810;13.022;2024-03-22T13:30:06;1.43;;;0.97;;
14396;SDS011;50653;47.810;13.022;2024-03-22T13:32:36;1.30;;;1.20;;
14396;SDS011;50653;47.810;13.022;2024-03-22T13:35:04;1.50;;;1.40;;
14396;SDS011;50653;47.810;13.022;2024-03-22T13:37:31;2.03;;;1.83;;
14396;SDS011;50653;47.810;13.022;2024-03-22T13:39:57;1.77;;;1.60;;
14396;SDS011;50653;47.810;13.022;2024-03-22T13:42:23;1.43;;;1.30;;
14396;SDS011;50653;47.810;13.022;2024-03-22T13:44:49;1.40;;;1.30;;
14396;SDS011;50653;47.810;13.022;2024-03-22T13:47:14;1.50;;;1.40;;
14396;SDS011;50653;47.810;13.022;2024-03-22T13:49:40;0.90;;;0.90;;
14396;SDS011;50653;47.810;13.022;2024-03-22T13:52:09;1.40;;;1.30;;
14396;SDS011;50653;47.810;13.022;2024-03-22T13:54:35;1.23;;;1.13;;
14396;SDS011;50653;47.810;13.022;2024-03-22T13:57:00;1.07;;;1.00;;
14396;SDS011;50653;47.810;13.022;2024-03-22T13:59:27;1.00;;;0.83;;
14396;SDS011;50653;47.810;13.022;2024-03-22T14:01:53;0.80;;;0.73;;
14396;SDS011;50653;47.810;13.022;2024-03-22T14:04:19;1.20;;;0.80;;
14396;SDS011;50653;47.810;13.022;2024-03-22T14:06:45;1.30;;;1.20;;
14396;SDS011;50653;47.810;13.022;2024-03-22T14:09:11;0.83;;;0.80;;
14396;SDS011;50653;47.810;13.022;2024-03-22T14:11:38;1.10;;;0.90;;
14396;SDS011;50653;47.810;13.022;2024-03-22T14:14:04;1.43;;;0.90;;
14396;SDS011;50653;47.810;13.022;2024-03-22T14:16:30;2.23;;;1.40;;
14396;SDS011;50653;47.810;13.022;2024-03-22T14:18:56;1.23;;;1.13;;
14396;SDS011;50653;47.810;13.022;2024-03-22T14:21:22;1.33;;;1.23;;
14396;SDS011;50653;47.810;13.022;2024-03-22T14:23:47;1.23;;;1.13;;
14396;SDS011;50653;47.810;13.022;2024-03-22T14:26:17;1.57;;;1.47;;
14396;SDS011;50653;47.810;13.022;2024-03-22T14:28:44;1.63;;;1.53;;